Charlotte, NC

5:19 PM EST en Febrero 22, 2017 (GMT -0500)
Charlotte | | Change Station

Alt 0 ft 35.23 °N, 80.85 °W | Updated 3 minutes ago

Muy nublado
Muy nublado
64.8 ° F
Sensación térmica 64.8 ° F
N
3.7
Viento Variable Viento desde ONO
Gusts 7.5 mph

Hoy
Alta -- | Baja -- ° F
--% Posibilidad de precipitaciones
Ayer
Alta -- | Baja -- ° F
Precip. -- pul
Presión 29.91 pul
Visibilidad 10.0 Millas
Nubes Baja 3600 ft
Muy nublado 20000 ft
Nublado 25000 ft
Punto de rocío 54 ° F
Humedad 67%
Precipitaciones No disponible.
Espesor de la nieve No disponible.
7:01 AM 6:12 PM
Creciente menguante, 14% visible
METAR KCLT 222152Z 36007KT 10SM FEW036 BKN200 OVC250 19/12 A2992 RMK AO2 SLP128 T01890117
Presión 29.91 pul
Visibilidad 10.0 Millas
Nubes Baja 3600 ft
Muy nublado 20000 ft
Nublado 25000 ft
Punto de rocío 54 ° F
Humedad 67%
Precipitaciones No disponible.
Espesor de la nieve No disponible.
7:01 AM 6:12 PM
Creciente menguante, 14% visible
METAR KCLT 222152Z 36007KT 10SM FEW036 BKN200 OVC250 19/12 A2992 RMK AO2 SLP128 T01890117

Get Your Daily Forecast Email!

Thanks for signing up!

Be on the lookout for a verification email in your inbox.

You'll start receiving the daily forecast at 8 AM.

×

10-Day Weather Forecast

Almanac

Astronomía

Feb. 22, 2017 Salida Puesta
Hora real
Crepúsculo civil
Crepúsculo náutico
Crepúsculo astronómico
Luna
Horas de luz
Horas de luz
Tomorrow will be .
, % of the Moon is Illuminated

Extremos de hoy

Máximos del estado Bajos del estado

Community

WunderPhotos

Upload Photos

1,962,540 ¡fotos cargadas!

WunderBlog® & News

Nearby

Calidad del aire

  Calidad del aire Índice AQ Contaminante
Not available.

Grosos de nieve

Estación Profundido Altura

Actividad de terremotos

Ciudad Distance Mag. Tiempo y dato
Magnitud mínima muestra es 2,5.

Temperaturas de aguas costeras

Lugar Temperatura

Stations

Estaciones meteorológicas cercanas

Ubicación de la estación Temp. Vientos helados Punto de rocío Humedad Viento Precip. Alt Actualizado Tipo
                   

Watches & Warnings

There are currently no watches in effect.